sensor_id;sensor_type;location;lat;lon;timestamp;pressure;altitude;pressure_sealevel;temperature;humidity
76114;BME280;64845;53.086;5.834;2023-04-25T00:00:47;101019.47;;;5.23;75.08
76114;BME280;64845;53.086;5.834;2023-04-25T00:03:12;101021.28;;;5.21;75.14
76114;BME280;64845;53.086;5.834;2023-04-25T00:05:39;101018.66;;;5.19;75.01
76114;BME280;64845;53.086;5.834;2023-04-25T00:08:04;101023.03;;;5.22;75.37
76114;BME280;64845;53.086;5.834;2023-04-25T00:10:30;101021.28;;;5.21;75.11
76114;BME280;64845;53.086;5.834;2023-04-25T00:12:56;101021.28;;;5.21;75.48
76114;BME280;64845;53.086;5.834;2023-04-25T00:15:22;101027.47;;;5.21;75.30
76114;BME280;64845;53.086;5.834;2023-04-25T00:17:49;101024.78;;;5.23;74.91
76114;BME280;64845;53.086;5.834;2023-04-25T00:20:14;101026.53;;;5.24;75.02
76114;BME280;64845;53.086;5.834;2023-04-25T00:22:40;101027.44;;;5.24;74.87
76114;BME280;64845;53.086;5.834;2023-04-25T00:25:06;101025.63;;;5.25;75.51
76114;BME280;64845;53.086;5.834;2023-04-25T00:27:32;101027.44;;;5.24;75.24
76114;BME280;64845;53.086;5.834;2023-04-25T00:29:58;101032.69;;;5.26;75.32
76114;BME280;64845;53.086;5.834;2023-04-25T00:32:23;101033.56;;;5.26;75.41
76114;BME280;64845;53.086;5.834;2023-04-25T00:34:48;101034.44;;;5.27;75.01
76114;BME280;64845;53.086;5.834;2023-04-25T00:37:14;101037.97;;;5.27;75.36
76114;BME280;64845;53.086;5.834;2023-04-25T00:39:39;101044.13;;;5.28;75.28
76114;BME280;64845;53.086;5.834;2023-04-25T00:42:05;101042.38;;;5.27;75.05
76114;BME280;64845;53.086;5.834;2023-04-25T00:44:31;101049.47;;;5.26;74.86
76114;BME280;64845;53.086;5.834;2023-04-25T00:46:57;101050.34;;;5.24;74.70
76114;BME280;64845;53.086;5.834;2023-04-25T00:49:23;101052.09;;;5.25;74.19
76114;BME280;64845;53.086;5.834;2023-04-25T00:51:48;101050.34;;;5.25;74.61
76114;BME280;64845;53.086;5.834;2023-04-25T00:54:14;101051.25;;;5.24;73.96
76114;BME280;64845;53.086;5.834;2023-04-25T00:56:40;101045.06;;;5.24;73.92
76114;BME280;64845;53.086;5.834;2023-04-25T00:59:07;101043.34;;;5.21;73.65
76114;BME280;64845;53.086;5.834;2023-04-25T01:01:34;101046.03;;;5.20;73.23
76114;BME280;64845;53.086;5.834;2023-04-25T01:04:00;101042.53;;;5.18;73.07
76114;BME280;64845;53.086;5.834;2023-04-25T01:06:26;101046.91;;;5.17;72.99
76114;BME280;64845;53.086;5.834;2023-04-25T01:08:52;101050.47;;;5.18;72.91
76114;BME280;64845;53.086;5.834;2023-04-25T01:11:18;101049.59;;;5.14;72.79
76114;BME280;64845;53.086;5.834;2023-04-25T01:13:44;101052.28;;;5.12;72.67
76114;BME280;64845;53.086;5.834;2023-04-25T01:16:09;101055.81;;;5.11;72.56
76114;BME280;64845;53.086;5.834;2023-04-25T01:18:36;101059.41;;;5.09;72.81
76114;BME280;64845;53.086;5.834;2023-04-25T01:21:10;101059.41;;;5.07;73.10
76114;BME280;64845;53.086;5.834;2023-04-25T01:23:36;101064.72;;;5.04;72.71
76114;BME280;64845;53.086;5.834;2023-04-25T01:26:02;101063.00;;;5.02;73.14
76114;BME280;64845;53.086;5.834;2023-04-25T01:28:28;101063.94;;;4.99;72.79
76114;BME280;64845;53.086;5.834;2023-04-25T01:30:54;101068.34;;;4.97;73.09
76114;BME280;64845;53.086;5.834;2023-04-25T01:33:21;101063.06;;;4.97;73.02
76114;BME280;64845;53.086;5.834;2023-04-25T01:35:47;101083.38;;;4.95;73.26
76114;BME280;64845;53.086;5.834;2023-04-25T01:38:13;101086.94;;;4.91;73.35
76114;BME280;64845;53.086;5.834;2023-04-25T01:40:40;101078.16;;;4.89;73.56
76114;BME280;64845;53.086;5.834;2023-04-25T01:43:07;101090.47;;;4.90;73.22
76114;BME280;64845;53.086;5.834;2023-04-25T01:45:33;101101.06;;;4.90;73.54
76114;BME280;64845;53.086;5.834;2023-04-25T01:47:59;101096.69;;;4.86;73.23
76114;BME280;64845;53.086;5.834;2023-04-25T01:50:25;101088.78;;;4.84;73.23
76114;BME280;64845;53.086;5.834;2023-04-25T01:52:50;101086.19;;;4.79;72.64
76114;BME280;64845;53.086;5.834;2023-04-25T01:55:16;101094.16;;;4.76;72.69
76114;BME280;64845;53.086;5.834;2023-04-25T01:57:41;101094.16;;;4.75;72.94
76114;BME280;64845;53.086;5.834;2023-04-25T02:00:07;101097.69;;;4.74;73.16
76114;BME280;64845;53.086;5.834;2023-04-25T02:02:34;101095.97;;;4.71;72.86
76114;BME280;64845;53.086;5.834;2023-04-25T02:05:00;101091.59;;;4.67;72.62
76114;BME280;64845;53.086;5.834;2023-04-25T02:07:26;101096.06;;;4.63;72.70
76114;BME280;64845;53.086;5.834;2023-04-25T02:09:52;101092.53;;;4.63;72.59
76114;BME280;64845;53.086;5.834;2023-04-25T02:12:17;101095.22;;;4.60;72.25
76114;BME280;64845;53.086;5.834;2023-04-25T02:14:43;101103.19;;;4.57;71.98
76114;BME280;64845;53.086;5.834;2023-04-25T02:17:08;101106.78;;;4.51;71.40
76114;BME280;64845;53.086;5.834;2023-04-25T02:19:33;101104.19;;;4.42;71.02
76114;BME280;64845;53.086;5.834;2023-04-25T02:21:59;101102.50;;;4.34;71.14
76114;BME280;64845;53.086;5.834;2023-04-25T02:24:24;101098.13;;;4.32;71.28
76114;BME280;64845;53.086;5.834;2023-04-25T02:26:50;101103.44;;;4.30;70.83
76114;BME280;64845;53.086;5.834;2023-04-25T02:29:16;101108.66;;;4.33;70.50
76114;BME280;64845;53.086;5.834;2023-04-25T02:31:42;101108.66;;;4.33;70.69
76114;BME280;64845;53.086;5.834;2023-04-25T02:34:07;101108.66;;;4.35;70.81
76114;BME280;64845;53.086;5.834;2023-04-25T02:36:32;101112.19;;;4.34;71.12
76114;BME280;64845;53.086;5.834;2023-04-25T02:39:00;101109.56;;;4.32;71.60
76114;BME280;64845;53.086;5.834;2023-04-25T02:41:26;101103.41;;;4.32;71.45
76114;BME280;64845;53.086;5.834;2023-04-25T02:43:51;101106.06;;;4.29;71.37
76114;BME280;64845;53.086;5.834;2023-04-25T02:46:16;101105.22;;;4.28;71.34
76114;BME280;64845;53.086;5.834;2023-04-25T02:48:42;101105.22;;;4.28;71.42
76114;BME280;64845;53.086;5.834;2023-04-25T02:51:07;101104.31;;;4.28;71.28
76114;BME280;64845;53.086;5.834;2023-04-25T02:53:32;101105.22;;;4.28;71.80
76114;BME280;64845;53.086;5.834;2023-04-25T02:55:58;101103.44;;;4.26;71.44
76114;BME280;64845;53.086;5.834;2023-04-25T02:58:24;101098.16;;;4.26;71.12
76114;BME280;64845;53.086;5.834;2023-04-25T03:00:50;101099.03;;;4.24;71.73
76114;BME280;64845;53.086;5.834;2023-04-25T03:03:15;101104.34;;;4.26;70.97
76114;BME280;64845;53.086;5.834;2023-04-25T03:05:43;101108.72;;;4.26;70.97
76114;BME280;64845;53.086;5.834;2023-04-25T03:08:09;101115.81;;;4.25;71.38
76114;BME280;64845;53.086;5.834;2023-04-25T03:10:34;101114.91;;;4.26;71.54
76114;BME280;64845;53.086;5.834;2023-04-25T03:13:00;101115.78;;;4.27;71.90
76114;BME280;64845;53.086;5.834;2023-04-25T03:15:25;101112.25;;;4.24;71.58
76114;BME280;64845;53.086;5.834;2023-04-25T03:17:50;101115.81;;;4.25;71.65
76114;BME280;64845;53.086;5.834;2023-04-25T03:20:16;101109.63;;;4.24;72.12
76114;BME280;64845;53.086;5.834;2023-04-25T03:22:41;101117.56;;;4.24;71.62
76114;BME280;64845;53.086;5.834;2023-04-25T03:25:07;101113.16;;;4.25;71.97
76114;BME280;64845;53.086;5.834;2023-04-25T03:27:33;101121.09;;;4.23;72.08
76114;BME280;64845;53.086;5.834;2023-04-25T03:29:58;101118.44;;;4.23;72.66
76114;BME280;64845;53.086;5.834;2023-04-25T03:32:24;101116.69;;;4.22;72.61
76114;BME280;64845;53.086;5.834;2023-04-25T03:34:49;101127.28;;;4.21;72.71
76114;BME280;64845;53.086;5.834;2023-04-25T03:37:15;101120.25;;;4.20;72.78
76114;BME280;64845;53.086;5.834;2023-04-25T03:39:40;101124.66;;;4.18;72.52
76114;BME280;64845;53.086;5.834;2023-04-25T03:42:05;101129.06;;;4.16;73.23
76114;BME280;64845;53.086;5.834;2023-04-25T03:44:31;101115.88;;;4.14;72.61
76114;BME280;64845;53.086;5.834;2023-04-25T03:46:56;101122.91;;;4.17;72.96
76114;BME280;64845;53.086;5.834;2023-04-25T03:49:22;101118.47;;;4.19;73.08
76114;BME280;64845;53.086;5.834;2023-04-25T03:51:47;101119.38;;;4.19;72.80
76114;BME280;64845;53.086;5.834;2023-04-25T03:54:12;101122.03;;;4.19;72.87
76114;BME280;64845;53.086;5.834;2023-04-25T03:56:38;101129.94;;;4.21;73.03
76114;BME280;64845;53.086;5.834;2023-04-25T03:59:03;101131.66;;;4.23;73.28
76114;BME280;64845;53.086;5.834;2023-04-25T04:01:28;101136.94;;;4.23;73.11
76114;BME280;64845;53.086;5.834;2023-04-25T04:03:54;101143.09;;;4.26;73.08
76114;BME280;64845;53.086;5.834;2023-04-25T04:06:19;101143.09;;;4.26;73.25
76114;BME280;64845;53.086;5.834;2023-04-25T04:08:46;101136.94;;;4.25;72.92
76114;BME280;64845;53.086;5.834;2023-04-25T04:11:11;101150.16;;;4.25;73.06
76114;BME280;64845;53.086;5.834;2023-04-25T04:13:37;101149.28;;;4.24;73.12
76114;BME280;64845;53.086;5.834;2023-04-25T04:16:02;101149.28;;;4.23;72.65
76114;BME280;64845;53.086;5.834;2023-04-25T04:18:29;101153.69;;;4.22;72.71
76114;BME280;64845;53.086;5.834;2023-04-25T04:20:54;101151.97;;;4.21;73.14
76114;BME280;64845;53.086;5.834;2023-04-25T04:23:20;101153.72;;;4.18;73.11
76114;BME280;64845;53.086;5.834;2023-04-25T04:25:46;101160.78;;;4.16;72.58
76114;BME280;64845;53.086;5.834;2023-04-25T04:28:12;101162.59;;;4.12;72.66
76114;BME280;64845;53.086;5.834;2023-04-25T04:30:38;101168.75;;;4.11;73.16
76114;BME280;64845;53.086;5.834;2023-04-25T04:33:04;101176.69;;;4.08;72.66
76114;BME280;64845;53.086;5.834;2023-04-25T04:35:29;101181.13;;;4.06;72.68
76114;BME280;64845;53.086;5.834;2023-04-25T04:37:55;101189.91;;;4.08;72.30
76114;BME280;64845;53.086;5.834;2023-04-25T04:40:21;101188.16;;;4.07;72.27
76114;BME280;64845;53.086;5.834;2023-04-25T04:42:47;101188.16;;;4.07;72.29
76114;BME280;64845;53.086;5.834;2023-04-25T04:45:13;101185.53;;;4.07;72.78
76114;BME280;64845;53.086;5.834;2023-04-25T04:47:39;101189.06;;;4.07;72.87
76114;BME280;64845;53.086;5.834;2023-04-25T04:50:09;101198.72;;;4.07;73.06
76114;BME280;64845;53.086;5.834;2023-04-25T04:52:35;101191.69;;;4.07;73.02
76114;BME280;64845;53.086;5.834;2023-04-25T04:55:02;101195.19;;;4.08;72.84
76114;BME280;64845;53.086;5.834;2023-04-25T04:57:28;101194.34;;;4.07;73.08
76114;BME280;64845;53.086;5.834;2023-04-25T04:59:54;101200.50;;;4.06;73.08
76114;BME280;64845;53.086;5.834;2023-04-25T05:02:19;101203.13;;;4.08;72.95
76114;BME280;64845;53.086;5.834;2023-04-25T05:04:45;101196.09;;;4.08;73.32
76114;BME280;64845;53.086;5.834;2023-04-25T05:07:10;101202.25;;;4.11;73.42
76114;BME280;64845;53.086;5.834;2023-04-25T05:09:36;101202.25;;;4.11;73.56
76114;BME280;64845;53.086;5.834;2023-04-25T05:12:01;101205.75;;;4.11;73.78
76114;BME280;64845;53.086;5.834;2023-04-25T05:14:27;101206.63;;;4.13;73.47
76114;BME280;64845;53.086;5.834;2023-04-25T05:16:52;101208.38;;;4.16;73.73
76114;BME280;64845;53.086;5.834;2023-04-25T05:19:17;101212.75;;;4.17;73.17
76114;BME280;64845;53.086;5.834;2023-04-25T05:21:43;101213.63;;;4.19;73.64
76114;BME280;64845;53.086;5.834;2023-04-25T05:24:08;101211.00;;;4.19;73.35
76114;BME280;64845;53.086;5.834;2023-04-25T05:26:34;101215.41;;;4.21;73.42
76114;BME280;64845;53.086;5.834;2023-04-25T05:29:00;101209.22;;;4.21;73.17
76114;BME280;64845;53.086;5.834;2023-04-25T05:31:25;101213.63;;;4.22;73.31
76114;BME280;64845;53.086;5.834;2023-04-25T05:33:51;101230.34;;;4.24;73.38
76114;BME280;64845;53.086;5.834;2023-04-25T05:36:18;101224.16;;;4.23;73.40
76114;BME280;64845;53.086;5.834;2023-04-25T05:38:43;101229.44;;;4.27;73.47
76114;BME280;64845;53.086;5.834;2023-04-25T05:41:25;101225.03;;;4.29;73.29
76114;BME280;64845;53.086;5.834;2023-04-25T05:44:11;101235.59;;;4.32;73.41
76114;BME280;64845;53.086;5.834;2023-04-25T05:46:36;101238.19;;;4.36;73.57
76114;BME280;64845;53.086;5.834;2023-04-25T05:49:02;101239.97;;;4.39;73.46
76114;BME280;64845;53.086;5.834;2023-04-25T05:51:27;101239.06;;;4.40;73.78
76114;BME280;64845;53.086;5.834;2023-04-25T05:53:53;101243.44;;;4.43;73.03
76114;BME280;64845;53.086;5.834;2023-04-25T05:56:18;101244.31;;;4.43;73.70
76114;BME280;64845;53.086;5.834;2023-04-25T05:58:43;101256.63;;;4.47;73.69
76114;BME280;64845;53.086;5.834;2023-04-25T06:01:09;101260.16;;;4.49;73.07
76114;BME280;64845;53.086;5.834;2023-04-25T06:03:34;101265.44;;;4.49;73.56
76114;BME280;64845;53.086;5.834;2023-04-25T06:06:00;101262.78;;;4.49;73.07
76114;BME280;64845;53.086;5.834;2023-04-25T06:08:25;101275.13;;;4.50;73.08
76114;BME280;64845;53.086;5.834;2023-04-25T06:10:50;101271.59;;;4.51;73.32
76114;BME280;64845;53.086;5.834;2023-04-25T06:13:16;101270.72;;;4.51;72.82
76114;BME280;64845;53.086;5.834;2023-04-25T06:15:41;101269.84;;;4.50;72.94
76114;BME280;64845;53.086;5.834;2023-04-25T06:18:07;101273.38;;;4.49;72.95
76114;BME280;64845;53.086;5.834;2023-04-25T06:20:32;101274.25;;;4.51;72.83
76114;BME280;64845;53.086;5.834;2023-04-25T06:22:58;101276.84;;;4.53;72.29
76114;BME280;64845;53.086;5.834;2023-04-25T06:25:23;101282.13;;;4.58;72.55
76114;BME280;64845;53.086;5.834;2023-04-25T06:27:48;101278.59;;;4.60;72.19
76114;BME280;64845;53.086;5.834;2023-04-25T06:30:14;101281.19;;;4.65;71.64
76114;BME280;64845;53.086;5.834;2023-04-25T06:32:40;101285.56;;;4.69;71.28
76114;BME280;64845;53.086;5.834;2023-04-25T06:35:06;101277.66;;;4.71;71.33
76114;BME280;64845;53.086;5.834;2023-04-25T06:37:31;101282.00;;;4.75;71.25
76114;BME280;64845;53.086;5.834;2023-04-25T06:39:57;101282.81;;;4.83;70.74
76114;BME280;64845;53.086;5.834;2023-04-25T06:42:22;101285.44;;;4.86;71.11
76114;BME280;64845;53.086;5.834;2023-04-25T06:44:47;101288.94;;;4.90;70.47
76114;BME280;64845;53.086;5.834;2023-04-25T06:47:14;101293.34;;;4.91;70.81
76114;BME280;64845;53.086;5.834;2023-04-25T06:49:39;101289.78;;;4.95;70.40
76114;BME280;64845;53.086;5.834;2023-04-25T06:52:04;101296.81;;;4.97;70.50
76114;BME280;64845;53.086;5.834;2023-04-25T06:54:30;101303.81;;;5.05;70.99
76114;BME280;64845;53.086;5.834;2023-04-25T06:56:55;101293.16;;;5.12;71.03
76114;BME280;64845;53.086;5.834;2023-04-25T06:59:21;101323.13;;;5.18;70.71
76114;BME280;64845;53.086;5.834;2023-04-25T07:01:46;101326.81;;;4.98;70.90
76114;BME280;64845;53.086;5.834;2023-04-25T07:04:12;101330.47;;;4.80;70.71
76114;BME280;64845;53.086;5.834;2023-04-25T07:06:37;101334.13;;;4.63;71.04
76114;BME280;64845;53.086;5.834;2023-04-25T07:09:11;101350.94;;;4.51;71.18
76114;BME280;64845;53.086;5.834;2023-04-25T07:11:36;101341.25;;;4.44;71.84
76114;BME280;64845;53.086;5.834;2023-04-25T07:14:02;101338.66;;;4.41;72.17
76114;BME280;64845;53.086;5.834;2023-04-25T07:16:28;101330.72;;;4.43;71.99
76114;BME280;64845;53.086;5.834;2023-04-25T07:18:53;101326.28;;;4.45;72.23
76114;BME280;64845;53.086;5.834;2023-04-25T07:21:19;101325.38;;;4.47;72.39
76114;BME280;64845;53.086;5.834;2023-04-25T07:23:44;101329.78;;;4.50;71.77
76114;BME280;64845;53.086;5.834;2023-04-25T07:26:10;101330.66;;;4.50;72.08
76114;BME280;64845;53.086;5.834;2023-04-25T07:28:35;101324.47;;;4.53;72.26
76114;BME280;64845;53.086;5.834;2023-04-25T07:31:01;101332.41;;;4.54;71.83
76114;BME280;64845;53.086;5.834;2023-04-25T07:33:27;101337.69;;;4.54;72.39
76114;BME280;64845;53.086;5.834;2023-04-25T07:35:52;101345.63;;;4.58;72.17
76114;BME280;64845;53.086;5.834;2023-04-25T07:38:18;101345.59;;;4.59;72.19
76114;BME280;64845;53.086;5.834;2023-04-25T07:40:43;101340.28;;;4.65;72.32
76114;BME280;64845;53.086;5.834;2023-04-25T07:43:09;101349.00;;;4.77;72.51
76114;BME280;64845;53.086;5.834;2023-04-25T07:45:34;101347.13;;;4.91;71.97
76114;BME280;64845;53.086;5.834;2023-04-25T07:47:59;101353.19;;;5.10;72.09
76114;BME280;64845;53.086;5.834;2023-04-25T07:50:25;101350.41;;;5.26;72.14
76114;BME280;64845;53.086;5.834;2023-04-25T07:52:50;101360.94;;;5.35;71.69
76114;BME280;64845;53.086;5.834;2023-04-25T07:55:15;101366.13;;;5.46;71.82
76114;BME280;64845;53.086;5.834;2023-04-25T07:57:41;101376.75;;;5.43;71.31
76114;BME280;64845;53.086;5.834;2023-04-25T08:00:07;101372.38;;;5.37;71.24
76114;BME280;64845;53.086;5.834;2023-04-25T08:02:35;101374.22;;;5.29;71.40
76114;BME280;64845;53.086;5.834;2023-04-25T08:05:01;101368.06;;;5.28;71.20
76114;BME280;64845;53.086;5.834;2023-04-25T08:07:27;101379.47;;;5.35;71.36
76114;BME280;64845;53.086;5.834;2023-04-25T08:09:53;101371.47;;;5.40;71.27
76114;BME280;64845;53.086;5.834;2023-04-25T08:12:18;101379.31;;;5.51;71.08
76114;BME280;64845;53.086;5.834;2023-04-25T08:14:44;101380.97;;;5.63;71.38
76114;BME280;64845;53.086;5.834;2023-04-25T08:17:09;101384.41;;;5.72;71.15
76114;BME280;64845;53.086;5.834;2023-04-25T08:19:35;101376.34;;;5.82;70.80
76114;BME280;64845;53.086;5.834;2023-04-25T08:22:00;101377.13;;;5.93;70.91
76114;BME280;64845;53.086;5.834;2023-04-25T08:24:26;101381.47;;;6.03;70.73
76114;BME280;64845;53.086;5.834;2023-04-25T08:26:51;101384.81;;;6.18;70.70
76114;BME280;64845;53.086;5.834;2023-04-25T08:29:17;101384.63;;;6.35;70.95
76114;BME280;64845;53.086;5.834;2023-04-25T08:31:42;101384.38;;;6.54;70.78
76114;BME280;64845;53.086;5.834;2023-04-25T08:34:07;101389.63;;;6.60;70.00
76114;BME280;64845;53.086;5.834;2023-04-25T08:36:33;101393.13;;;6.62;69.80
76114;BME280;64845;53.086;5.834;2023-04-25T08:38:58;101393.13;;;6.62;69.27
76114;BME280;64845;53.086;5.834;2023-04-25T08:41:24;101392.16;;;6.68;68.90
76114;BME280;64845;53.086;5.834;2023-04-25T08:43:51;101400.84;;;6.80;68.39
76114;BME280;64845;53.086;5.834;2023-04-25T08:46:19;101399.75;;;6.94;68.33
76114;BME280;64845;53.086;5.834;2023-04-25T08:48:46;101406.84;;;6.93;68.36
76114;BME280;64845;53.086;5.834;2023-04-25T08:51:23;101407.78;;;6.89;68.16
76114;BME280;64845;53.086;5.834;2023-04-25T08:53:53;101410.44;;;6.88;67.87
76114;BME280;64845;53.086;5.834;2023-04-25T08:56:19;101422.78;;;6.92;67.95
76114;BME280;64845;53.086;5.834;2023-04-25T08:58:50;101428.09;;;6.93;67.50
76114;BME280;64845;53.086;5.834;2023-04-25T09:01:16;101427.38;;;6.79;67.20
76114;BME280;64845;53.086;5.834;2023-04-25T09:03:43;101426.66;;;6.68;67.38
76114;BME280;64845;53.086;5.834;2023-04-25T09:06:10;101433.88;;;6.58;67.35
76114;BME280;64845;53.086;5.834;2023-04-25T09:08:37;101432.16;;;6.55;67.30
76114;BME280;64845;53.086;5.834;2023-04-25T09:11:02;101441.88;;;6.56;67.32
76114;BME280;64845;53.086;5.834;2023-04-25T09:13:28;101437.34;;;6.63;67.11
76114;BME280;64845;53.086;5.834;2023-04-25T09:15:56;101444.31;;;6.72;66.62
76114;BME280;64845;53.086;5.834;2023-04-25T09:18:30;101454.91;;;6.75;66.38
76114;BME280;64845;53.086;5.834;2023-04-25T09:21:08;101476.16;;;6.70;65.71
76114;BME280;64845;53.086;5.834;2023-04-25T09:23:47;101485.28;;;6.49;65.51
76114;BME280;64845;53.086;5.834;2023-04-25T09:26:19;101486.34;;;6.31;66.06
76114;BME280;64845;53.086;5.834;2023-04-25T09:28:45;101483.78;;;6.25;66.48
76114;BME280;64845;53.086;5.834;2023-04-25T09:31:21;101494.41;;;6.20;66.70
76114;BME280;64845;53.086;5.834;2023-04-25T09:33:47;101503.38;;;6.10;67.22
76114;BME280;64845;53.086;5.834;2023-04-25T09:36:12;101506.06;;;6.03;67.46
76114;BME280;64845;53.086;5.834;2023-04-25T09:38:43;101522.16;;;5.80;67.65
76114;BME280;64845;53.086;5.834;2023-04-25T09:41:09;101505.44;;;5.69;67.95
76114;BME280;64845;53.086;5.834;2023-04-25T09:43:36;101506.31;;;5.69;68.04
76114;BME280;64845;53.086;5.834;2023-04-25T09:46:02;101499.22;;;5.73;68.37
76114;BME280;64845;53.086;5.834;2023-04-25T09:48:28;101500.09;;;5.75;68.31
76114;BME280;64845;53.086;5.834;2023-04-25T09:51:13;101507.16;;;5.78;68.36
76114;BME280;64845;53.086;5.834;2023-04-25T09:53:43;101513.28;;;5.83;68.44
76114;BME280;64845;53.086;5.834;2023-04-25T09:56:12;101522.09;;;5.85;68.55
76114;BME280;64845;53.086;5.834;2023-04-25T09:58:39;101526.47;;;5.90;68.37
76114;BME280;64845;53.086;5.834;2023-04-25T10:01:07;101523.78;;;5.95;68.03
76114;BME280;64845;53.086;5.834;2023-04-25T10:03:34;101526.31;;;6.14;67.76
76114;BME280;64845;53.086;5.834;2023-04-25T10:06:06;101527.88;;;6.32;67.52
76114;BME280;64845;53.086;5.834;2023-04-25T10:08:36;101540.19;;;6.42;67.35
76114;BME280;64845;53.086;5.834;2023-04-25T10:11:04;101525.16;;;6.40;66.75
76114;BME280;64845;53.086;5.834;2023-04-25T10:13:30;101528.63;;;6.48;66.71
76114;BME280;64845;53.086;5.834;2023-04-25T10:16:00;101531.09;;;6.65;66.65
76114;BME280;64845;53.086;5.834;2023-04-25T10:18:27;101516.69;;;6.85;66.94
76114;BME280;64845;53.086;5.834;2023-04-25T10:20:59;101523.66;;;6.93;66.84
76114;BME280;64845;53.086;5.834;2023-04-25T10:23:25;101525.41;;;6.96;66.22
76114;BME280;64845;53.086;5.834;2023-04-25T10:25:52;101532.44;;;6.99;65.61
76114;BME280;64845;53.086;5.834;2023-04-25T10:28:18;101535.91;;;7.05;64.92
76114;BME280;64845;53.086;5.834;2023-04-25T10:31:10;101521.63;;;7.13;63.99
76114;BME280;64845;53.086;5.834;2023-04-25T10:33:40;101537.44;;;7.23;63.45
76114;BME280;64845;53.086;5.834;2023-04-25T10:36:12;101516.97;;;7.32;63.15
76114;BME280;64845;53.086;5.834;2023-04-25T10:38:38;101526.47;;;7.47;63.00
76114;BME280;64845;53.086;5.834;2023-04-25T10:41:08;101522.94;;;7.46;62.41
76114;BME280;64845;53.086;5.834;2023-04-25T10:43:48;101524.63;;;7.53;62.18
76114;BME280;64845;53.086;5.834;2023-04-25T10:48:45;101547.44;;;7.67;61.48
76114;BME280;64845;53.086;5.834;2023-04-25T10:51:11;101561.66;;;7.64;61.00
76114;BME280;64845;53.086;5.834;2023-04-25T10:53:40;101604.59;;;7.35;61.51
76114;BME280;64845;53.086;5.834;2023-04-25T10:56:30;101571.41;;;6.96;61.92
76114;BME280;64845;53.086;5.834;2023-04-25T10:59:11;101565.50;;;6.73;62.52
76114;BME280;64845;53.086;5.834;2023-04-25T11:01:44;101553.41;;;6.45;62.95
76114;BME280;64845;53.086;5.834;2023-04-25T11:04:30;101574.75;;;6.34;63.40
76114;BME280;64845;53.086;5.834;2023-04-25T11:07:04;101558.78;;;6.38;63.97
76114;BME280;64845;53.086;5.834;2023-04-25T11:09:33;101554.22;;;6.50;64.39
76114;BME280;64845;53.086;5.834;2023-04-25T11:11:59;101551.44;;;6.64;64.28
76114;BME280;64845;53.086;5.834;2023-04-25T11:14:26;101556.56;;;6.80;64.01
76114;BME280;64845;53.086;5.834;2023-04-25T11:16:59;101575.94;;;6.88;63.02
76114;BME280;64845;53.086;5.834;2023-04-25T11:19:25;101569.69;;;6.92;62.38
76114;BME280;64845;53.086;5.834;2023-04-25T11:21:55;101569.66;;;6.94;61.88
76114;BME280;64845;53.086;5.834;2023-04-25T11:24:28;101564.31;;;6.97;61.67
76114;BME280;64845;53.086;5.834;2023-04-25T11:26:54;101563.25;;;7.12;62.00
76114;BME280;64845;53.086;5.834;2023-04-25T11:29:22;101554.19;;;7.27;62.13
76114;BME280;64845;53.086;5.834;2023-04-25T11:31:48;101558.53;;;7.34;62.21
76114;BME280;64845;53.086;5.834;2023-04-25T11:34:20;101571.56;;;7.53;62.32
76114;BME280;64845;53.086;5.834;2023-04-25T11:36:45;101565.19;;;7.65;62.17
76114;BME280;64845;53.086;5.834;2023-04-25T11:39:12;101562.28;;;7.80;62.11
76114;BME280;64845;53.086;5.834;2023-04-25T11:41:38;101570.31;;;7.77;62.05
76114;BME280;64845;53.086;5.834;2023-04-25T11:44:04;101567.63;;;7.79;62.04
76114;BME280;64845;53.086;5.834;2023-04-25T11:46:30;101559.66;;;7.77;61.89
76114;BME280;64845;53.086;5.834;2023-04-25T11:48:59;101581.00;;;7.72;61.36
76114;BME280;64845;53.086;5.834;2023-04-25T11:51:24;101575.84;;;7.62;60.98
76114;BME280;64845;53.086;5.834;2023-04-25T11:53:50;101590.97;;;7.58;61.24
76114;BME280;64845;53.086;5.834;2023-04-25T11:56:16;101575.94;;;7.55;60.99
76114;BME280;64845;53.086;5.834;2023-04-25T11:58:58;101590.97;;;7.56;61.32
76114;BME280;64845;53.086;5.834;2023-04-25T12:01:31;101578.66;;;7.52;60.90
76114;BME280;64845;53.086;5.834;2023-04-25T12:03:58;101573.19;;;7.62;60.57
76114;BME280;64845;53.086;5.834;2023-04-25T12:06:28;101593.38;;;7.75;60.38
76114;BME280;64845;53.086;5.834;2023-04-25T12:09:03;101584.38;;;7.85;59.74
76114;BME280;64845;53.086;5.834;2023-04-25T12:11:30;101590.28;;;8.03;59.60
76114;BME280;64845;53.086;5.834;2023-04-25T12:14:02;101588.22;;;8.22;59.55
76114;BME280;64845;53.086;5.834;2023-04-25T12:16:27;101596.03;;;8.33;59.04
76114;BME280;64845;53.086;5.834;2023-04-25T12:18:53;101603.78;;;8.45;59.17
76114;BME280;64845;53.086;5.834;2023-04-25T12:21:20;101601.13;;;8.44;58.83
76114;BME280;64845;53.086;5.834;2023-04-25T12:23:45;101604.78;;;8.40;58.32
76114;BME280;64845;53.086;5.834;2023-04-25T12:26:11;101584.38;;;8.37;57.94
76114;BME280;64845;53.086;5.834;2023-04-25T12:28:36;101601.06;;;8.47;57.93
76114;BME280;64845;53.086;5.834;2023-04-25T12:35:58;101603.91;;;8.36;57.36
76114;BME280;64845;53.086;5.834;2023-04-25T12:38:29;101603.91;;;8.38;57.34
76114;BME280;64845;53.086;5.834;2023-04-25T12:40:55;101604.97;;;8.27;57.67
76114;BME280;64845;53.086;5.834;2023-04-25T12:43:22;101608.53;;;8.26;57.49
76114;BME280;64845;53.086;5.834;2023-04-25T12:45:49;101615.84;;;8.13;57.19
76114;BME280;64845;53.086;5.834;2023-04-25T12:48:16;101617.78;;;8.02;56.64
76114;BME280;64845;53.086;5.834;2023-04-25T12:50:41;101614.22;;;8.03;56.54
76114;BME280;64845;53.086;5.834;2023-04-25T12:53:07;101616.13;;;7.96;56.70
76114;BME280;64845;53.086;5.834;2023-04-25T12:55:32;101617.22;;;7.83;57.09
76114;BME280;64845;53.086;5.834;2023-04-25T12:57:58;101617.34;;;7.74;57.17
76114;BME280;64845;53.086;5.834;2023-04-25T13:00:23;101625.22;;;7.80;57.20
76114;BME280;64845;53.086;5.834;2023-04-25T13:02:49;101625.13;;;7.86;56.88
76114;BME280;64845;53.086;5.834;2023-04-25T13:05:15;101611.78;;;7.89;56.27